Thunder radar more information blitzortung!


Radar de pluja more information rain snow radar


Visita la nostra xarxa de llocs de meteo:

Template documentation
and downloads

And another site



No particular awareness of the weather is required.    There are no Weather-warnings

Pagina Historial Weather Underground text

Diari Resum Agost 15, 2017 Unitats:  Tant    Imperial   Mètric
« Previous Dia
SegĂźent Dia »
Diari Setmana Mensual Anual Personalitzada
  Maxima: Minima: Media:
Temperatura: 85.3 °F /  29.6 °C 63 °F /  17.2 °C 77.7 °F /  25.4 °C
Punt de rosada: 65.7 °F /  18.7 °C 54 °F /  12.2 °C 61 °F /  16.1 °C
Humitat: 78 % 43 % 58 %
Wind Speed: 15.4 mph /  24.8 km/h - 5.2 mph /  8.3 km/h
RĂ fegues de vent: 15.4 mph /  24.8 km/h - -
Vent:- - East
Pression baro: 30.1 in /  1018.8 hPa 30 in /  1015.8 hPa -
Precipitacions: 0 in /  0.0 mm    
Historical Graphs
 
 
Dades de taula per Agost 15, 2017
Temps Temperatura Punt de rosada Pression baro Vent Wind Speed RĂ fegues de vent Humitat Rainfall Rate (Hourly)
00:00 72 °F /  22.2 °C 56.8 °F /  13.8 °C 30.1 in /  1017.8 hPa NNE 2.3 mph /  3.7 km/h 2.3 mph /  3.7 km/h 59 % 0 in /  0.0 mm
00:05 71.6 °F /  22.0 °C 57 °F /  13.9 °C 30.1 in /  1017.8 hPa NE 1.6 mph /  2.6 km/h   60 % 0 in /  0.0 mm
00:10 71.6 °F /  22.0 °C 57 °F /  13.9 °C 30.1 in /  1017.8 hPa NE 2.3 mph /  3.7 km/h 2.3 mph /  3.7 km/h 60 % 0 in /  0.0 mm
00:15 71.4 °F /  21.9 °C 57.4 °F /  14.1 °C 30.1 in /  1017.8 hPa NE 1.2 mph /  1.9 km/h   61 % 0 in /  0.0 mm
00:55 63.5 °F /  17.5 °C 55.8 °F /  13.2 °C 30.1 in /  1017.8 hPa WSW 1 mph /  1.6 km/h 1 mph /  1.6 km/h 76 % 0 in /  0.0 mm
01:05 63.3 °F /  17.4 °C 55.6 °F /  13.1 °C 30 in /  1016.8 hPa Calm     76 % 0 in /  0.0 mm
01:15 63.1 °F /  17.3 °C 55.8 °F /  13.2 °C 30 in /  1016.8 hPa Calm     77 % 0 in /  0.0 mm
01:25 63.3 °F /  17.4 °C 55.9 °F /  13.3 °C 30.1 in /  1017.8 hPa Calm     77 % 0 in /  0.0 mm
01:35 63.3 °F /  17.4 °C 55.9 °F /  13.3 °C 30 in /  1016.8 hPa Calm   1 mph /  1.6 km/h 77 % 0 in /  0.0 mm
01:45 63.5 °F /  17.5 °C 56.5 °F /  13.6 °C 30 in /  1016.8 hPa Calm     78 % 0 in /  0.0 mm
01:55 63.5 °F /  17.5 °C 56.5 °F /  13.6 °C 30 in /  1016.8 hPa Calm   3 mph /  4.8 km/h 78 % 0 in /  0.0 mm
02:05 63.1 °F /  17.3 °C 55.8 °F /  13.2 °C 30.1 in /  1017.8 hPa NE 2 mph /  3.2 km/h 2 mph /  3.2 km/h 77 % 0 in /  0.0 mm
02:15 63 °F /  17.2 °C 54.9 °F /  12.7 °C 30.1 in /  1017.8 hPa NE 1 mph /  1.6 km/h 3 mph /  4.8 km/h 75 % 0 in /  0.0 mm
02:25 63.3 °F /  17.4 °C 54.5 °F /  12.5 °C 30.1 in /  1017.8 hPa NNE 1 mph /  1.6 km/h 3 mph /  4.8 km/h 73 % 0 in /  0.0 mm
02:35 63.9 °F /  17.7 °C 54 °F /  12.2 °C 30.1 in /  1017.8 hPa NNE 2 mph /  3.2 km/h 3 mph /  4.8 km/h 70 % 0 in /  0.0 mm
02:45 64.4 °F /  18.0 °C 54 °F /  12.2 °C 30.1 in /  1017.8 hPa North 1 mph /  1.6 km/h 4 mph /  6.4 km/h 69 % 0 in /  0.0 mm
02:55 65.3 °F /  18.5 °C 54.5 °F /  12.5 °C 30.1 in /  1017.8 hPa Calm   2 mph /  3.2 km/h 68 % 0 in /  0.0 mm
03:05 64.6 °F /  18.1 °C 54.1 °F /  12.3 °C 30.1 in /  1017.8 hPa WSW 2 mph /  3.2 km/h 3 mph /  4.8 km/h 69 % 0 in /  0.0 mm
03:15 64.4 °F /  18.0 °C 54.9 °F /  12.7 °C 30.1 in /  1017.8 hPa SW 1 mph /  1.6 km/h 3 mph /  4.8 km/h 71 % 0 in /  0.0 mm
03:25 64.8 °F /  18.2 °C 55.6 °F /  13.1 °C 30.1 in /  1017.8 hPa WSW 2 mph /  3.2 km/h 2 mph /  3.2 km/h 72 % 0 in /  0.0 mm
03:35 66 °F /  18.9 °C 57 °F /  13.9 °C 30.1 in /  1017.8 hPa SW 1 mph /  1.6 km/h 2 mph /  3.2 km/h 73 % 0 in /  0.0 mm
03:45 67.3 °F /  19.6 °C 56.8 °F /  13.8 °C 30.1 in /  1017.8 hPa East 3 mph /  4.8 km/h 4 mph /  6.4 km/h 69 % 0 in /  0.0 mm
03:55 68.7 °F /  20.4 °C 57.4 °F /  14.1 °C 30.1 in /  1017.8 hPa NNE 1 mph /  1.6 km/h 4 mph /  6.4 km/h 67 % 0 in /  0.0 mm
04:05 69.1 °F /  20.6 °C 56.5 °F /  13.6 °C 30.1 in /  1017.8 hPa North 2 mph /  3.2 km/h 4 mph /  6.4 km/h 64 % 0 in /  0.0 mm
04:15 69.8 °F /  21.0 °C 56.1 °F /  13.4 °C 30.1 in /  1017.8 hPa North 2 mph /  3.2 km/h 3 mph /  4.8 km/h 62 % 0 in /  0.0 mm
04:25 70 °F /  21.1 °C 55.6 °F /  13.1 °C 30.1 in /  1017.8 hPa NNE 2 mph /  3.2 km/h 6 mph /  9.7 km/h 60 % 0 in /  0.0 mm
04:35 70 °F /  21.1 °C 55 °F /  12.8 °C 30.1 in /  1017.8 hPa NNE 5 mph /  8.0 km/h 8 mph /  12.9 km/h 59 % 0 in /  0.0 mm
04:45 71.2 °F /  21.8 °C 55.8 °F /  13.2 °C 30.1 in /  1017.8 hPa NNE 3 mph /  4.8 km/h 4 mph /  6.4 km/h 58 % 0 in /  0.0 mm
04:55 71.8 °F /  22.1 °C 55.2 °F /  12.9 °C 30.1 in /  1017.8 hPa NNE 3 mph /  4.8 km/h 6 mph /  9.7 km/h 56 % 0 in /  0.0 mm
05:05 72.9 °F /  22.7 °C 55.8 °F /  13.2 °C 30.1 in /  1017.8 hPa NNE 2 mph /  3.2 km/h 5 mph /  8.0 km/h 55 % 0 in /  0.0 mm
05:15 73.8 °F /  23.2 °C 56.1 °F /  13.4 °C 30.1 in /  1017.8 hPa NNE 3 mph /  4.8 km/h 6 mph /  9.7 km/h 54 % 0 in /  0.0 mm
05:25 74.5 °F /  23.6 °C 56.1 °F /  13.4 °C 30.1 in /  1017.8 hPa NNE 3 mph /  4.8 km/h 3 mph /  4.8 km/h 53 % 0 in /  0.0 mm
05:35 75.4 °F /  24.1 °C 56.5 °F /  13.6 °C 30.1 in /  1017.8 hPa NNE 5 mph /  8.0 km/h 5 mph /  8.0 km/h 52 % 0 in /  0.0 mm
05:45 76.1 °F /  24.5 °C 56.7 °F /  13.7 °C 30.1 in /  1017.8 hPa NE 3 mph /  4.8 km/h 5 mph /  8.0 km/h 51 % 0 in /  0.0 mm
10:52 78.3 °F /  25.7 °C 57.6 °F /  14.2 °C 30.1 in /  1018.8 hPa East 3.5 mph /  5.6 km/h 3.5 mph /  5.6 km/h 49 % 0 in /  0.0 mm
10:53 78.3 °F /  25.7 °C 57.6 °F /  14.2 °C 30.1 in /  1018.8 hPa ESE 3.8 mph /  6.1 km/h 3.8 mph /  6.1 km/h 49 % 0 in /  0.0 mm
10:58 78.1 °F /  25.6 °C 57.4 °F /  14.1 °C 30.1 in /  1018.8 hPa NE 4.7 mph /  7.6 km/h 4.7 mph /  7.6 km/h 49 % 0 in /  0.0 mm
11:03 78.1 °F /  25.6 °C 57.4 °F /  14.1 °C 30.1 in /  1017.8 hPa NNW 2.3 mph /  3.7 km/h 2.3 mph /  3.7 km/h 49 % 0 in /  0.0 mm
11:08 78.4 °F /  25.8 °C 57.7 °F /  14.3 °C 30.1 in /  1017.8 hPa NE 4.6 mph /  7.4 km/h 4.6 mph /  7.4 km/h 49 % 0 in /  0.0 mm
11:13 79 °F /  26.1 °C 57.6 °F /  14.2 °C 30.1 in /  1017.8 hPa ESE 2.4 mph /  3.9 km/h 2.9 mph /  4.7 km/h 48 % 0 in /  0.0 mm
11:18 80.2 °F /  26.8 °C 58.8 °F /  14.9 °C 30.1 in /  1017.8 hPa ENE 3.6 mph /  5.8 km/h 3.6 mph /  5.8 km/h 48 % 0 in /  0.0 mm
11:23 80.2 °F /  26.8 °C 58.8 °F /  14.9 °C 30.1 in /  1017.8 hPa SE 4.9 mph /  7.9 km/h 4.9 mph /  7.9 km/h 48 % 0 in /  0.0 mm
11:28 80.1 °F /  26.7 °C 58.6 °F /  14.8 °C 30.1 in /  1017.8 hPa ESE 6.9 mph /  11.1 km/h 6.9 mph /  11.1 km/h 48 % 0 in /  0.0 mm
11:33 80.2 °F /  26.8 °C 58.8 °F /  14.9 °C 30.1 in /  1017.8 hPa ENE 4.6 mph /  7.4 km/h 4.6 mph /  7.4 km/h 48 % 0 in /  0.0 mm
11:38 80.6 °F /  27.0 °C 58.5 °F /  14.7 °C 30.1 in /  1017.8 hPa East 2.6 mph /  4.2 km/h 2.6 mph /  4.2 km/h 47 % 0 in /  0.0 mm
11:43 81.1 °F /  27.3 °C 58.5 °F /  14.7 °C 30.1 in /  1017.8 hPa East 4.6 mph /  7.4 km/h 4.6 mph /  7.4 km/h 46 % 0 in /  0.0 mm
11:48 81.5 °F /  27.5 °C 58.6 °F /  14.8 °C 30.1 in /  1017.8 hPa East 4.9 mph /  7.9 km/h 4.9 mph /  7.9 km/h 46 % 0 in /  0.0 mm
11:53 81.9 °F /  27.7 °C 59.2 °F /  15.1 °C 30.1 in /  1017.8 hPa ENE 4.6 mph /  7.4 km/h 4.6 mph /  7.4 km/h 46 % 0 in /  0.0 mm
11:58 81.5 °F /  27.5 °C 59.4 °F /  15.2 °C 30.1 in /  1017.8 hPa East 3.8 mph /  6.1 km/h 3.8 mph /  6.1 km/h 47 % 0 in /  0.0 mm
12:03 82.8 °F /  28.2 °C 59.9 °F /  15.5 °C 30.1 in /  1017.8 hPa East 5.8 mph /  9.3 km/h 5.8 mph /  9.3 km/h 46 % 0 in /  0.0 mm
12:08 82.8 °F /  28.2 °C 59.9 °F /  15.5 °C 30.1 in /  1017.8 hPa SE 4.6 mph /  7.4 km/h 4.6 mph /  7.4 km/h 46 % 0 in /  0.0 mm
12:13 84.2 °F /  29.0 °C 59.9 °F /  15.5 °C 30.1 in /  1017.8 hPa South 5.8 mph /  9.3 km/h 5.8 mph /  9.3 km/h 44 % 0 in /  0.0 mm
12:18 84.4 °F /  29.1 °C 60.1 °F /  15.6 °C 30.1 in /  1017.8 hPa ENE 5.8 mph /  9.3 km/h 5.8 mph /  9.3 km/h 44 % 0 in /  0.0 mm
12:23 82.9 °F /  28.3 °C 58.8 °F /  14.9 °C 30.1 in /  1017.8 hPa ESE 9.2 mph /  14.8 km/h 9.2 mph /  14.8 km/h 44 % 0 in /  0.0 mm
12:28 83.3 °F /  28.5 °C 59.2 °F /  15.1 °C 30.1 in /  1017.8 hPa SE 5.8 mph /  9.3 km/h 5.8 mph /  9.3 km/h 44 % 0 in /  0.0 mm
12:33 83.5 °F /  28.6 °C 59.4 °F /  15.2 °C 30.1 in /  1017.8 hPa East 8.1 mph /  13.0 km/h 8.1 mph /  13.0 km/h 44 % 0 in /  0.0 mm
12:38 83.8 °F /  28.8 °C 59.5 °F /  15.3 °C 30.1 in /  1017.8 hPa ESE 8.1 mph /  13.0 km/h 8.1 mph /  13.0 km/h 44 % 0 in /  0.0 mm
12:43 84.2 °F /  29.0 °C 59.4 °F /  15.2 °C 30.1 in /  1017.8 hPa SE 4.6 mph /  7.4 km/h 4.6 mph /  7.4 km/h 43 % 0 in /  0.0 mm
12:48 84.4 °F /  29.1 °C 60.1 °F /  15.6 °C 30.1 in /  1018.8 hPa NE 5.8 mph /  9.3 km/h 5.8 mph /  9.3 km/h 44 % 0 in /  0.0 mm
12:53 84.2 °F /  29.0 °C 59.9 °F /  15.5 °C 30.1 in /  1018.8 hPa ESE 9.2 mph /  14.8 km/h 9.2 mph /  14.8 km/h 44 % 0 in /  0.0 mm
12:58 84.9 °F /  29.4 °C 60.6 °F /  15.9 °C 30.1 in /  1017.8 hPa ESE 8.1 mph /  13.0 km/h 8.1 mph /  13.0 km/h 44 % 0 in /  0.0 mm
13:03 84.7 °F /  29.3 °C 61 °F /  16.1 °C 30.1 in /  1017.8 hPa ESE 10.4 mph /  16.7 km/h 10.4 mph /  16.7 km/h 45 % 0 in /  0.0 mm
13:08 84.7 °F /  29.3 °C 61 °F /  16.1 °C 30.1 in /  1017.8 hPa ENE 8.1 mph /  13.0 km/h 8.1 mph /  13.0 km/h 45 % 0 in /  0.0 mm
13:13 84.6 °F /  29.2 °C 61.5 °F /  16.4 °C 30.1 in /  1017.8 hPa North 10 mph /  16.1 km/h 10 mph /  16.1 km/h 46 % 0 in /  0.0 mm
13:18 85.1 °F /  29.5 °C 62.6 °F /  17.0 °C 30.1 in /  1017.8 hPa SSE 8.1 mph /  13.0 km/h 8.1 mph /  13.0 km/h 47 % 0 in /  0.0 mm
13:23 85.3 °F /  29.6 °C 62.8 °F /  17.1 °C 30.1 in /  1017.8 hPa ESE 6.9 mph /  11.1 km/h 6.9 mph /  11.1 km/h 47 % 0 in /  0.0 mm
13:28 84.2 °F /  29.0 °C 61.9 °F /  16.6 °C 30.1 in /  1017.8 hPa ESE 10.9 mph /  17.5 km/h 10.9 mph /  17.5 km/h 47 % 0 in /  0.0 mm
13:33 83.5 °F /  28.6 °C 62.2 °F /  16.8 °C 30.1 in /  1017.8 hPa ESE 12.7 mph /  20.4 km/h 12.7 mph /  20.4 km/h 49 % 0 in /  0.0 mm
13:38 83.5 °F /  28.6 °C 62.2 °F /  16.8 °C 30.1 in /  1017.8 hPa SE 10.4 mph /  16.7 km/h 10.4 mph /  16.7 km/h 49 % 0 in /  0.0 mm
13:43 83.7 °F /  28.7 °C 63 °F /  17.2 °C 30.1 in /  1017.8 hPa ESE 11.5 mph /  18.5 km/h 11.5 mph /  18.5 km/h 50 % 0 in /  0.0 mm
13:48 83.1 °F /  28.4 °C 62.6 °F /  17.0 °C 30.1 in /  1017.8 hPa ESE 10.4 mph /  16.7 km/h 10.4 mph /  16.7 km/h 50 % 0 in /  0.0 mm
13:53 83.5 °F /  28.6 °C 62.2 °F /  16.8 °C 30.1 in /  1017.8 hPa East 14.5 mph /  23.3 km/h 14.5 mph /  23.3 km/h 49 % 0 in /  0.0 mm
13:58 82.6 °F /  28.1 °C 61 °F /  16.1 °C 30.1 in /  1018.8 hPa ESE 15 mph /  24.1 km/h 15 mph /  24.1 km/h 48 % 0 in /  0.0 mm
14:03 83.3 °F /  28.5 °C 61 °F /  16.1 °C 30.1 in /  1018.8 hPa SSW 9.2 mph /  14.8 km/h 9.2 mph /  14.8 km/h 47 % 0 in /  0.0 mm
14:08 83.5 °F /  28.6 °C 60.4 °F /  15.8 °C 30.1 in /  1018.8 hPa SSE 10.4 mph /  16.7 km/h 10.4 mph /  16.7 km/h 46 % 0 in /  0.0 mm
14:13 82.9 °F /  28.3 °C 60.6 °F /  15.9 °C 30.1 in /  1017.8 hPa SSE 13.8 mph /  22.2 km/h 13.8 mph /  22.2 km/h 47 % 0 in /  0.0 mm
14:18 83.3 °F /  28.5 °C 60.4 °F /  15.8 °C 30.1 in /  1017.8 hPa ESE 10.4 mph /  16.7 km/h 10.4 mph /  16.7 km/h 46 % 0 in /  0.0 mm
14:23 82.9 °F /  28.3 °C 60.6 °F /  15.9 °C 30.1 in /  1017.8 hPa East 9.2 mph /  14.8 km/h 9.2 mph /  14.8 km/h 47 % 0 in /  0.0 mm
14:28 82.4 °F /  28.0 °C 60.1 °F /  15.6 °C 30 in /  1016.8 hPa ESE 12.7 mph /  20.4 km/h 12.7 mph /  20.4 km/h 47 % 0 in /  0.0 mm
14:33 82.8 °F /  28.2 °C 61.2 °F /  16.2 °C 30 in /  1016.8 hPa NNE 10.4 mph /  16.7 km/h 10.4 mph /  16.7 km/h 48 % 0 in /  0.0 mm
14:35 82.8 °F /  28.2 °C 60.4 °F /  15.8 °C 30 in /  1016.8 hPa ESE 15.4 mph /  24.8 km/h 15.4 mph /  24.8 km/h 47 % 0 in /  0.0 mm
14:40 82.2 °F /  27.9 °C 60.1 °F /  15.6 °C 30 in /  1016.8 hPa ESE 11.5 mph /  18.5 km/h 11.5 mph /  18.5 km/h 47 % 0 in /  0.0 mm
14:45 82.4 °F /  28.0 °C 60.6 °F /  15.9 °C 30.1 in /  1017.8 hPa SSE 8.1 mph /  13.0 km/h 8.1 mph /  13.0 km/h 48 % 0 in /  0.0 mm
14:50 83.5 °F /  28.6 °C 61.7 °F /  16.5 °C 30.1 in /  1017.8 hPa SSE 9.7 mph /  15.6 km/h 9.7 mph /  15.6 km/h 48 % 0 in /  0.0 mm
14:55 82.4 °F /  28.0 °C 60.6 °F /  15.9 °C 30.1 in /  1017.8 hPa ESE 12.7 mph /  20.4 km/h 12.7 mph /  20.4 km/h 48 % 0 in /  0.0 mm
15:00 82 °F /  27.8 °C 61 °F /  16.1 °C 30.1 in /  1017.8 hPa SSE 9.2 mph /  14.8 km/h 9.2 mph /  14.8 km/h 49 % 0 in /  0.0 mm
15:05 82.2 °F /  27.9 °C 61.2 °F /  16.2 °C 30.1 in /  1017.8 hPa ENE 11.5 mph /  18.5 km/h 11.5 mph /  18.5 km/h 49 % 0 in /  0.0 mm
15:10 83.1 °F /  28.4 °C 62.1 °F /  16.7 °C 30.1 in /  1017.8 hPa ESE 9.2 mph /  14.8 km/h 9.2 mph /  14.8 km/h 49 % 0 in /  0.0 mm
15:15 82.8 °F /  28.2 °C 61.2 °F /  16.2 °C 30.1 in /  1017.8 hPa ENE 12.7 mph /  20.4 km/h 12.7 mph /  20.4 km/h 48 % 0 in /  0.0 mm
15:20 82.9 °F /  28.3 °C 61.2 °F /  16.2 °C 30.1 in /  1017.8 hPa ENE 11.5 mph /  18.5 km/h 11.5 mph /  18.5 km/h 48 % 0 in /  0.0 mm
15:25 83.1 °F /  28.4 °C 61.3 °F /  16.3 °C 30.1 in /  1017.8 hPa ESE 9.2 mph /  14.8 km/h 9.2 mph /  14.8 km/h 48 % 0 in /  0.0 mm
15:30 82.2 °F /  27.9 °C 60.1 °F /  15.6 °C 30 in /  1016.8 hPa ENE 11.5 mph /  18.5 km/h 11.5 mph /  18.5 km/h 47 % 0 in /  0.0 mm
15:35 82.4 °F /  28.0 °C 60.6 °F /  15.9 °C 30 in /  1016.8 hPa East 11.5 mph /  18.5 km/h 11.5 mph /  18.5 km/h 48 % 0 in /  0.0 mm
15:40 82.4 °F /  28.0 °C 60.6 °F /  15.9 °C 30 in /  1016.8 hPa ENE 15 mph /  24.1 km/h 15 mph /  24.1 km/h 48 % 0 in /  0.0 mm
15:45 82.2 °F /  27.9 °C 60.6 °F /  15.9 °C 30 in /  1016.8 hPa East 8.1 mph /  13.0 km/h 8.1 mph /  13.0 km/h 48 % 0 in /  0.0 mm
15:50 81.9 °F /  27.7 °C 60.3 °F /  15.7 °C 30 in /  1016.8 hPa ESE 8.1 mph /  13.0 km/h 8.1 mph /  13.0 km/h 48 % 0 in /  0.0 mm
15:55 82 °F /  27.8 °C 60.4 °F /  15.8 °C 30 in /  1016.8 hPa East 12.7 mph /  20.4 km/h 12.7 mph /  20.4 km/h 48 % 0 in /  0.0 mm
16:00 81.7 °F /  27.6 °C 60.1 °F /  15.6 °C 30 in /  1016.8 hPa ENE 12.7 mph /  20.4 km/h 12.7 mph /  20.4 km/h 48 % 0 in /  0.0 mm
16:05 81.9 °F /  27.7 °C 60.3 °F /  15.7 °C 30 in /  1016.8 hPa East 5.8 mph /  9.3 km/h 5.8 mph /  9.3 km/h 48 % 0 in /  0.0 mm
16:10 81.3 °F /  27.4 °C 59.2 °F /  15.1 °C 30 in /  1016.8 hPa ENE 6.9 mph /  11.1 km/h 6.9 mph /  11.1 km/h 47 % 0 in /  0.0 mm
16:15 81.3 °F /  27.4 °C 59.2 °F /  15.1 °C 30 in /  1016.8 hPa East 5.8 mph /  9.3 km/h 5.8 mph /  9.3 km/h 47 % 0 in /  0.0 mm
16:20 81.5 °F /  27.5 °C 59.4 °F /  15.2 °C 30 in /  1016.8 hPa NE 9.2 mph /  14.8 km/h 9.2 mph /  14.8 km/h 47 % 0 in /  0.0 mm
16:25 81.9 °F /  27.7 °C 59.7 °F /  15.4 °C 30 in /  1016.8 hPa East 5.8 mph /  9.3 km/h 5.8 mph /  9.3 km/h 47 % 0 in /  0.0 mm
16:30 82.6 °F /  28.1 °C 60.3 °F /  15.7 °C 30 in /  1016.8 hPa ENE 8.1 mph /  13.0 km/h 8.1 mph /  13.0 km/h 47 % 0 in /  0.0 mm
16:35 82.8 °F /  28.2 °C 60.4 °F /  15.8 °C 30 in /  1016.8 hPa ENE 9.2 mph /  14.8 km/h 9.2 mph /  14.8 km/h 47 % 0 in /  0.0 mm
16:40 82.4 °F /  28.0 °C 60.6 °F /  15.9 °C 30 in /  1016.8 hPa NNE 6.9 mph /  11.1 km/h 6.9 mph /  11.1 km/h 48 % 0 in /  0.0 mm
16:45 82 °F /  27.8 °C 60.4 °F /  15.8 °C 30 in /  1015.8 hPa ESE 8.1 mph /  13.0 km/h 8.1 mph /  13.0 km/h 48 % 0 in /  0.0 mm
16:50 82.4 °F /  28.0 °C 60.6 °F /  15.9 °C 30 in /  1015.8 hPa ESE 6.9 mph /  11.1 km/h 6.9 mph /  11.1 km/h 48 % 0 in /  0.0 mm
16:55 82.4 °F /  28.0 °C 60.6 °F /  15.9 °C 30 in /  1015.8 hPa ESE 5.8 mph /  9.3 km/h 5.8 mph /  9.3 km/h 48 % 0 in /  0.0 mm
17:00 82.9 °F /  28.3 °C 61.2 °F /  16.2 °C 30 in /  1015.8 hPa ENE 6.9 mph /  11.1 km/h 6.9 mph /  11.1 km/h 48 % 0 in /  0.0 mm
17:05 82.8 °F /  28.2 °C 61.2 °F /  16.2 °C 30 in /  1015.8 hPa SSW 6.9 mph /  11.1 km/h 6.9 mph /  11.1 km/h 48 % 0 in /  0.0 mm
17:10 82.4 °F /  28.0 °C 61.3 °F /  16.3 °C 30 in /  1015.8 hPa ESE 5.9 mph /  9.5 km/h 5.9 mph /  9.5 km/h 49 % 0 in /  0.0 mm
17:11 82.4 °F /  28.0 °C 61.3 °F /  16.3 °C 30 in /  1015.8 hPa ESE 5.8 mph /  9.3 km/h 5.8 mph /  9.3 km/h 49 % 0 in /  0.0 mm
17:16 81.7 °F /  27.6 °C 60.6 °F /  15.9 °C 30 in /  1015.8 hPa ESE 4 mph /  6.4 km/h 4 mph /  6.4 km/h 49 % 0 in /  0.0 mm
17:21 81.7 °F /  27.6 °C 61.2 °F /  16.2 °C 30 in /  1015.8 hPa ENE 10.4 mph /  16.7 km/h 10.4 mph /  16.7 km/h 50 % 0 in /  0.0 mm
17:26 81.9 °F /  27.7 °C 62.1 °F /  16.7 °C 30 in /  1015.8 hPa East 5.8 mph /  9.3 km/h 5.8 mph /  9.3 km/h 51 % 0 in /  0.0 mm
17:31 82 °F /  27.8 °C 62.1 °F /  16.7 °C 30 in /  1015.8 hPa ESE 5.8 mph /  9.3 km/h 5.8 mph /  9.3 km/h 51 % 0 in /  0.0 mm
17:36 82.2 °F /  27.9 °C 62.2 °F /  16.8 °C 30 in /  1015.8 hPa ESE 5.8 mph /  9.3 km/h 5.8 mph /  9.3 km/h 51 % 0 in /  0.0 mm
17:41 82 °F /  27.8 °C 62.1 °F /  16.7 °C 30 in /  1015.8 hPa SE 5.8 mph /  9.3 km/h 5.8 mph /  9.3 km/h 51 % 0 in /  0.0 mm
17:46 82.2 °F /  27.9 °C 62.2 °F /  16.8 °C 30 in /  1015.8 hPa SSE 3.5 mph /  5.6 km/h 3.5 mph /  5.6 km/h 51 % 0 in /  0.0 mm
17:51 82 °F /  27.8 °C 62.8 °F /  17.1 °C 30 in /  1015.8 hPa SE 5.8 mph /  9.3 km/h 5.8 mph /  9.3 km/h 52 % 0 in /  0.0 mm
17:56 82.4 °F /  28.0 °C 63 °F /  17.2 °C 30 in /  1015.8 hPa SSE 3.5 mph /  5.6 km/h 3.5 mph /  5.6 km/h 52 % 0 in /  0.0 mm
18:01 82.4 °F /  28.0 °C 63 °F /  17.2 °C 30 in /  1015.8 hPa ESE 6.9 mph /  11.1 km/h 6.9 mph /  11.1 km/h 52 % 0 in /  0.0 mm
18:06 82.2 °F /  27.9 °C 62.8 °F /  17.1 °C 30 in /  1015.8 hPa SSW 4.6 mph /  7.4 km/h 4.6 mph /  7.4 km/h 52 % 0 in /  0.0 mm
18:11 82.6 °F /  28.1 °C 63.1 °F /  17.3 °C 30 in /  1015.8 hPa SW 5.8 mph /  9.3 km/h 5.8 mph /  9.3 km/h 52 % 0 in /  0.0 mm
18:16 82.6 °F /  28.1 °C 63.1 °F /  17.3 °C 30 in /  1015.8 hPa SSE 5.8 mph /  9.3 km/h 5.8 mph /  9.3 km/h 52 % 0 in /  0.0 mm
18:21 81.9 °F /  27.7 °C 62.1 °F /  16.7 °C 30 in /  1015.8 hPa SE 3.5 mph /  5.6 km/h 3.5 mph /  5.6 km/h 51 % 0 in /  0.0 mm
18:26 81.9 °F /  27.7 °C 61.3 °F /  16.3 °C 30 in /  1015.8 hPa SSE 5.8 mph /  9.3 km/h 5.8 mph /  9.3 km/h 50 % 0 in /  0.0 mm
18:31 81.7 °F /  27.6 °C 60.6 °F /  15.9 °C 30 in /  1015.8 hPa SSE 5.8 mph /  9.3 km/h 5.8 mph /  9.3 km/h 49 % 0 in /  0.0 mm
18:36 81.7 °F /  27.6 °C 60.6 °F /  15.9 °C 30 in /  1015.8 hPa SW 3.5 mph /  5.6 km/h 3.5 mph /  5.6 km/h 49 % 0 in /  0.0 mm
18:41 81.7 °F /  27.6 °C 61.2 °F /  16.2 °C 30 in /  1015.8 hPa ENE 1.4 mph /  2.3 km/h 1.4 mph /  2.3 km/h 50 % 0 in /  0.0 mm
18:46 82 °F /  27.8 °C 61.5 °F /  16.4 °C 30 in /  1016.8 hPa SSE 4.6 mph /  7.4 km/h 4.6 mph /  7.4 km/h 50 % 0 in /  0.0 mm
18:51 81.9 °F /  27.7 °C 61.3 °F /  16.3 °C 30 in /  1016.8 hPa East 2.3 mph /  3.7 km/h 2.3 mph /  3.7 km/h 50 % 0 in /  0.0 mm
18:52 81.9 °F /  27.7 °C 61.3 °F /  16.3 °C 30 in /  1016.8 hPa ESE 2.3 mph /  3.7 km/h   50 % 0 in /  0.0 mm
18:57 81.9 °F /  27.7 °C 60.8 °F /  16.0 °C 30 in /  1016.8 hPa East 2.6 mph /  4.2 km/h 2.6 mph /  4.2 km/h 49 % 0 in /  0.0 mm
19:02 81.5 °F /  27.5 °C 61.2 °F /  16.2 °C 30 in /  1016.8 hPa NE 3.5 mph /  5.6 km/h 3.5 mph /  5.6 km/h 50 % 0 in /  0.0 mm
19:07 81.5 °F /  27.5 °C 61.2 °F /  16.2 °C 30 in /  1016.8 hPa ENE 3.6 mph /  5.8 km/h 3.6 mph /  5.8 km/h 50 % 0 in /  0.0 mm
19:12 81.3 °F /  27.4 °C 61 °F /  16.1 °C 30 in /  1016.8 hPa ENE 5.8 mph /  9.3 km/h 5.8 mph /  9.3 km/h 50 % 0 in /  0.0 mm
19:17 81.3 °F /  27.4 °C 61 °F /  16.1 °C 30 in /  1015.8 hPa East 8.1 mph /  13.0 km/h 8.1 mph /  13.0 km/h 50 % 0 in /  0.0 mm
19:22 81.1 °F /  27.3 °C 61.3 °F /  16.3 °C 30 in /  1015.8 hPa ENE 9.2 mph /  14.8 km/h 9.2 mph /  14.8 km/h 51 % 0 in /  0.0 mm
19:27 80.8 °F /  27.1 °C 61 °F /  16.1 °C 30 in /  1015.8 hPa East 5.8 mph /  9.3 km/h 5.8 mph /  9.3 km/h 51 % 0 in /  0.0 mm
19:32 80.8 °F /  27.1 °C 61.5 °F /  16.4 °C 30 in /  1015.8 hPa NNE 5.8 mph /  9.3 km/h 5.8 mph /  9.3 km/h 52 % 0 in /  0.0 mm
19:37 80.4 °F /  26.9 °C 63.3 °F /  17.4 °C 30 in /  1015.8 hPa NE 9.2 mph /  14.8 km/h 9.2 mph /  14.8 km/h 56 % 0 in /  0.0 mm
19:42 80.1 °F /  26.7 °C 64.4 °F /  18.0 °C 30 in /  1015.8 hPa ENE 10.4 mph /  16.7 km/h 10.4 mph /  16.7 km/h 59 % 0 in /  0.0 mm
19:47 79.9 °F /  26.6 °C 65.1 °F /  18.4 °C 30 in /  1015.8 hPa SE 6.9 mph /  11.1 km/h 6.9 mph /  11.1 km/h 61 % 0 in /  0.0 mm
19:52 79.3 °F /  26.3 °C 65.7 °F /  18.7 °C 30 in /  1015.8 hPa NNE 8.1 mph /  13.0 km/h 8.1 mph /  13.0 km/h 63 % 0 in /  0.0 mm
19:57 79.2 °F /  26.2 °C 64.9 °F /  18.3 °C 30 in /  1015.8 hPa ESE 5.9 mph /  9.5 km/h 5.9 mph /  9.5 km/h 62 % 0 in /  0.0 mm
20:02 79 °F /  26.1 °C 65.3 °F /  18.5 °C 30 in /  1015.8 hPa ENE 9.2 mph /  14.8 km/h 9.2 mph /  14.8 km/h 63 % 0 in /  0.0 mm
20:07 79 °F /  26.1 °C 65.3 °F /  18.5 °C 30 in /  1015.8 hPa South 5.8 mph /  9.3 km/h 5.8 mph /  9.3 km/h 63 % 0 in /  0.0 mm
20:12 79.2 °F /  26.2 °C 64.9 °F /  18.3 °C 30 in /  1015.8 hPa SE 3.5 mph /  5.6 km/h 3.5 mph /  5.6 km/h 62 % 0 in /  0.0 mm
20:17 79 °F /  26.1 °C 64.4 °F /  18.0 °C 30 in /  1016.8 hPa SSE 5.8 mph /  9.3 km/h 5.8 mph /  9.3 km/h 61 % 0 in /  0.0 mm
20:22 78.8 °F /  26.0 °C 64.2 °F /  17.9 °C 30 in /  1016.8 hPa South 3.5 mph /  5.6 km/h 3.5 mph /  5.6 km/h 61 % 0 in /  0.0 mm
20:27 78.8 °F /  26.0 °C 63.7 °F /  17.6 °C 30 in /  1016.8 hPa ENE 3.6 mph /  5.8 km/h 3.6 mph /  5.8 km/h 60 % 0 in /  0.0 mm
20:32 78.6 °F /  25.9 °C 63.7 °F /  17.6 °C 30 in /  1016.8 hPa ENE 2.3 mph /  3.7 km/h 2.3 mph /  3.7 km/h 60 % 0 in /  0.0 mm
20:37 78.4 °F /  25.8 °C 63.3 °F /  17.4 °C 30 in /  1016.8 hPa ENE 3.3 mph /  5.3 km/h 3.3 mph /  5.3 km/h 60 % 0 in /  0.0 mm
20:42 78.3 °F /  25.7 °C 63.7 °F /  17.6 °C 30 in /  1016.8 hPa ESE 4.6 mph /  7.4 km/h 4.6 mph /  7.4 km/h 61 % 0 in /  0.0 mm
20:47 78.1 °F /  25.6 °C 63.5 °F /  17.5 °C 30 in /  1016.8 hPa ENE 3.5 mph /  5.6 km/h 3.5 mph /  5.6 km/h 61 % 0 in /  0.0 mm
20:52 77.9 °F /  25.5 °C 63.9 °F /  17.7 °C 30 in /  1016.8 hPa NNE 3.5 mph /  5.6 km/h 3.5 mph /  5.6 km/h 62 % 0 in /  0.0 mm
20:57 77.7 °F /  25.4 °C 63.7 °F /  17.6 °C 30 in /  1016.8 hPa NE 3.5 mph /  5.6 km/h 3.5 mph /  5.6 km/h 62 % 0 in /  0.0 mm
21:02 77.5 °F /  25.3 °C 63.5 °F /  17.5 °C 30 in /  1016.8 hPa East 3.5 mph /  5.6 km/h 3.5 mph /  5.6 km/h 62 % 0 in /  0.0 mm
21:07 77.4 °F /  25.2 °C 63.9 °F /  17.7 °C 30 in /  1016.8 hPa NNE 4.3 mph /  6.9 km/h 4.3 mph /  6.9 km/h 63 % 0 in /  0.0 mm
21:12 77.2 °F /  25.1 °C 64 °F /  17.8 °C 30 in /  1016.8 hPa NE 4.6 mph /  7.4 km/h 4.6 mph /  7.4 km/h 64 % 0 in /  0.0 mm
21:17 77 °F /  25.0 °C 63.9 °F /  17.7 °C 30 in /  1015.8 hPa NNE 2.9 mph /  4.7 km/h 2.9 mph /  4.7 km/h 64 % 0 in /  0.0 mm
21:22 77 °F /  25.0 °C 64.2 °F /  17.9 °C 30 in /  1015.8 hPa NE 2.6 mph /  4.2 km/h 2.6 mph /  4.2 km/h 65 % 0 in /  0.0 mm
21:27 76.8 °F /  24.9 °C 64.6 °F /  18.1 °C 30 in /  1015.8 hPa NNE 3.5 mph /  5.6 km/h 3.5 mph /  5.6 km/h 66 % 0 in /  0.0 mm
21:32 76.6 °F /  24.8 °C 64.4 °F /  18.0 °C 30 in /  1015.8 hPa NE 3.5 mph /  5.6 km/h 3.5 mph /  5.6 km/h 66 % 0 in /  0.0 mm
21:35 72 °F /  22.2 °C 62.1 °F /  16.7 °C 30.1 in /  1017.8 hPa North 1 mph /  1.6 km/h 1 mph /  1.6 km/h 71 % 0 in /  0.0 mm
21:37 76.6 °F /  24.8 °C 64.9 °F /  18.3 °C 30 in /  1015.8 hPa NE 2.3 mph /  3.7 km/h 2.3 mph /  3.7 km/h 67 % 0 in /  0.0 mm
21:42 76.5 °F /  24.7 °C 64.8 °F /  18.2 °C 30 in /  1015.8 hPa NNE 3.5 mph /  5.6 km/h 3.5 mph /  5.6 km/h 67 % 0 in /  0.0 mm
21:45 71.8 °F /  22.1 °C 62.2 °F /  16.8 °C 30.1 in /  1018.8 hPa NNE 2 mph /  3.2 km/h 4 mph /  6.4 km/h 72 % 0 in /  0.0 mm
21:47 76.3 °F /  24.6 °C 64.6 °F /  18.1 °C 30 in /  1015.8 hPa ENE 2.3 mph /  3.7 km/h 2.3 mph /  3.7 km/h 67 % 0 in /  0.0 mm
21:52 76.3 °F /  24.6 °C 64.6 °F /  18.1 °C 30 in /  1015.8 hPa ENE 2.3 mph /  3.7 km/h 2.3 mph /  3.7 km/h 67 % 0 in /  0.0 mm
21:55 71.8 °F /  22.1 °C 62.2 °F /  16.8 °C 30.1 in /  1018.8 hPa NE 2 mph /  3.2 km/h 3 mph /  4.8 km/h 72 % 0 in /  0.0 mm
21:57 76.3 °F /  24.6 °C 64.9 °F /  18.3 °C 30 in /  1015.8 hPa NE 2.3 mph /  3.7 km/h 2.3 mph /  3.7 km/h 68 % 0 in /  0.0 mm
22:02 76.1 °F /  24.5 °C 64.8 °F /  18.2 °C 30 in /  1016.8 hPa Calm     68 % 0 in /  0.0 mm
22:05 71.4 °F /  21.9 °C 61.9 °F /  16.6 °C 30.1 in /  1017.8 hPa NE 2 mph /  3.2 km/h 3 mph /  4.8 km/h 72 % 0 in /  0.0 mm
22:07 75.9 °F /  24.4 °C 64.6 °F /  18.1 °C 30 in /  1016.8 hPa Calm     68 % 0 in /  0.0 mm
22:12 75.9 °F /  24.4 °C 64.6 °F /  18.1 °C 30 in /  1016.8 hPa NNW 1.2 mph /  1.9 km/h 1.2 mph /  1.9 km/h 68 % 0 in /  0.0 mm
22:15 71.4 °F /  21.9 °C 62.2 °F /  16.8 °C 30.1 in /  1017.8 hPa NNE 1 mph /  1.6 km/h 2 mph /  3.2 km/h 73 % 0 in /  0.0 mm
22:17 75.7 °F /  24.3 °C 64.8 °F /  18.2 °C 30 in /  1016.8 hPa ENE 1.2 mph /  1.9 km/h   69 % 0 in /  0.0 mm
22:22 75.7 °F /  24.3 °C 64.8 °F /  18.2 °C 30 in /  1016.8 hPa ENE 2.3 mph /  3.7 km/h 2.3 mph /  3.7 km/h 69 % 0 in /  0.0 mm
22:25 71.2 °F /  21.8 °C 62.1 °F /  16.7 °C 30.1 in /  1017.8 hPa NNE 1 mph /  1.6 km/h 2 mph /  3.2 km/h 73 % 0 in /  0.0 mm
22:27 75.7 °F /  24.3 °C 64.8 °F /  18.2 °C 30 in /  1016.8 hPa NE 2.6 mph /  4.2 km/h 2.6 mph /  4.2 km/h 69 % 0 in /  0.0 mm
22:32 75.6 °F /  24.2 °C 64.8 °F /  18.2 °C 30 in /  1016.8 hPa NNE 3.5 mph /  5.6 km/h 3.6 mph /  5.8 km/h 69 % 0 in /  0.0 mm
22:35 71.1 °F /  21.7 °C 62.1 °F /  16.7 °C 30.1 in /  1017.8 hPa Calm     73 % 0 in /  0.0 mm
22:37 75.4 °F /  24.1 °C 64.6 °F /  18.1 °C 30 in /  1016.8 hPa ENE 4.6 mph /  7.4 km/h 4.6 mph /  7.4 km/h 69 % 0 in /  0.0 mm
22:42 75.4 °F /  24.1 °C 64.9 °F /  18.3 °C 30 in /  1016.8 hPa NE 2.6 mph /  4.2 km/h 2.6 mph /  4.2 km/h 70 % 0 in /  0.0 mm
22:45 71.1 °F /  21.7 °C 62.4 °F /  16.9 °C 30.1 in /  1017.8 hPa North 1 mph /  1.6 km/h 2 mph /  3.2 km/h 74 % 0 in /  0.0 mm
22:47 75.4 °F /  24.1 °C 64.9 °F /  18.3 °C 30 in /  1015.8 hPa NNE 3.8 mph /  6.1 km/h 3.8 mph /  6.1 km/h 70 % 0 in /  0.0 mm
22:52 75.4 °F /  24.1 °C 64.9 °F /  18.3 °C 30 in /  1015.8 hPa NNE 0.9 mph /  1.4 km/h   70 % 0 in /  0.0 mm
22:55 71.4 °F /  21.9 °C 63.1 °F /  17.3 °C 30.1 in /  1017.8 hPa North 1 mph /  1.6 km/h 2 mph /  3.2 km/h 75 % 0 in /  0.0 mm
22:57 75.2 °F /  24.0 °C 64.8 °F /  18.2 °C 30 in /  1015.8 hPa NNE 2.4 mph /  3.9 km/h 2.4 mph /  3.9 km/h 70 % 0 in /  0.0 mm
23:02 75 °F /  23.9 °C 64.9 °F /  18.3 °C 30 in /  1016.8 hPa NE 1.2 mph /  1.9 km/h   71 % 0 in /  0.0 mm
23:05 71.8 °F /  22.1 °C 63.9 °F /  17.7 °C 30.1 in /  1017.8 hPa NE 2 mph /  3.2 km/h 3 mph /  4.8 km/h 76 % 0 in /  0.0 mm
23:07 74.8 °F /  23.8 °C 64.8 °F /  18.2 °C 30 in /  1016.8 hPa NNW 1.2 mph /  1.9 km/h 1.2 mph /  1.9 km/h 71 % 0 in /  0.0 mm
23:12 74.8 °F /  23.8 °C 64.8 °F /  18.2 °C 30 in /  1016.8 hPa Calm     71 % 0 in /  0.0 mm
23:15 72 °F /  22.2 °C 64.4 °F /  18.0 °C 30.1 in /  1017.8 hPa NE 2 mph /  3.2 km/h 3 mph /  4.8 km/h 77 % 0 in /  0.0 mm
23:17 74.7 °F /  23.7 °C 64.9 °F /  18.3 °C 30.1 in /  1017.8 hPa Calm     72 % 0 in /  0.0 mm
23:22 74.7 °F /  23.7 °C 64.9 °F /  18.3 °C 30.1 in /  1017.8 hPa NE 3.5 mph /  5.6 km/h 3.5 mph /  5.6 km/h 72 % 0 in /  0.0 mm
23:25 71.6 °F /  22.0 °C 64 °F /  17.8 °C 30.1 in /  1017.8 hPa NE 2 mph /  3.2 km/h 3 mph /  4.8 km/h 77 % 0 in /  0.0 mm
23:27 74.5 °F /  23.6 °C 64.6 °F /  18.1 °C 30.1 in /  1017.8 hPa NNE 2.6 mph /  4.2 km/h 2.6 mph /  4.2 km/h 71 % 0 in /  0.0 mm
23:32 74.5 °F /  23.6 °C 64.6 °F /  18.1 °C 30 in /  1016.8 hPa North 4.6 mph /  7.4 km/h 4.6 mph /  7.4 km/h 71 % 0 in /  0.0 mm
23:35 71.6 °F /  22.0 °C 64 °F /  17.8 °C 30.1 in /  1017.8 hPa NNE 2 mph /  3.2 km/h 3 mph /  4.8 km/h 77 % 0 in /  0.0 mm
23:37 74.7 °F /  23.7 °C 64.2 °F /  17.9 °C 30 in /  1016.8 hPa NNE 5.8 mph /  9.3 km/h 5.8 mph /  9.3 km/h 70 % 0 in /  0.0 mm
23:42 74.8 °F /  23.8 °C 64.4 °F /  18.0 °C 30 in /  1016.8 hPa NNE 4.6 mph /  7.4 km/h 4.6 mph /  7.4 km/h 70 % 0 in /  0.0 mm
23:45 71.8 °F /  22.1 °C 64.6 °F /  18.1 °C 30.1 in /  1017.8 hPa NNE 2 mph /  3.2 km/h 3 mph /  4.8 km/h 78 % 0 in /  0.0 mm
23:47 74.8 °F /  23.8 °C 64 °F /  17.8 °C 30 in /  1016.8 hPa NE 6.9 mph /  11.1 km/h 6.9 mph /  11.1 km/h 69 % 0 in /  0.0 mm
23:49 74.8 °F /  23.8 °C 64 °F /  17.8 °C 30 in /  1016.8 hPa ENE 6 mph /  9.7 km/h 6 mph /  9.7 km/h 69 % 0 in /  0.0 mm
23:54 74.8 °F /  23.8 °C 64 °F /  17.8 °C 30 in /  1016.8 hPa NE 5.8 mph /  9.3 km/h 5.8 mph /  9.3 km/h 69 % 0 in /  0.0 mm
23:55 71.6 °F /  22.0 °C 64.4 °F /  18.0 °C 30.1 in /  1017.8 hPa NNE 2 mph /  3.2 km/h 3 mph /  4.8 km/h 78 % 0 in /  0.0 mm
23:59 74.7 °F /  23.7 °C 63.3 °F /  17.4 °C 30 in /  1016.8 hPa ENE 5.8 mph /  9.3 km/h 5.8 mph /  9.3 km/h 68 % 0 in /  0.0 mm
Meteo Sesrovires
Elogis d' Weather Underground - 3.5 mb

Guio original per  Jim McMurry - jmcmurry@mwt.net Adaptat per a la plantilla per  Wim van der Kuil - Leuven-Template.eu

Trobareu la nostra informacio del temps tambe a:

Weather Underground

AWEKAS